Time;durP1;ratioP1;P1;durP2;ratioP2;P2;SDS_P1;SDS_P2;PMS_P1;PMS_P2;Temp;Humidity;BMP_temperature;BMP_pressure;BME280_temperature;BME280_humidity;BME280_pressure;Samples;Min_cycle;Max_cycle;Signal;HPM_P1;HPM_P2
2021/12/29 00:01:25;;;;;;;1.50;1.40;;;1.60;99.90;;;;;;4944058;28;20199;-87
2021/12/29 00:03:51;;;;;;;3.57;2.80;;;1.60;99.90;;;;;;4933976;29;20230;-87
2021/12/29 00:06:16;;;;;;;1.93;1.83;;;1.60;99.90;;;;;;4934461;28;20983;-88
2021/12/29 00:08:42;;;;;;;1.27;1.17;;;1.60;99.90;;;;;;4949686;28;20449;-88
2021/12/29 00:11:08;;;;;;;1.73;1.63;;;1.60;99.90;;;;;;4949444;28;20213;-88
2021/12/29 00:13:34;;;;;;;2.63;1.83;;;1.60;99.90;;;;;;4950182;28;20190;-87
2021/12/29 00:16:00;;;;;;;3.00;2.80;;;1.60;99.90;;;;;;4945566;28;20447;-87
2021/12/29 00:18:29;;;;;;;2.57;2.37;;;1.60;99.90;;;;;;4925721;29;20886;-86
2021/12/29 00:20:57;;;;;;;1.40;1.20;;;1.60;99.90;;;;;;4950354;28;20506;-88
2021/12/29 00:23:23;;;;;;;2.77;2.53;;;1.60;99.90;;;;;;4944866;28;20505;-88
2021/12/29 00:25:48;;;;;;;2.70;2.50;;;1.60;99.90;;;;;;4938679;28;20935;-88
2021/12/29 00:28:15;;;;;;;6.53;6.17;;;1.60;99.90;;;;;;4951321;28;20240;-88
2021/12/29 00:30:41;;;;;;;1.57;1.47;;;1.50;99.90;;;;;;4939439;28;20194;-86
2021/12/29 00:33:07;;;;;;;4.70;4.27;;;1.50;99.90;;;;;;4950790;28;20466;-87
2021/12/29 00:35:34;;;;;;;4.03;3.00;;;1.60;99.90;;;;;;4948302;28;20473;-88
2021/12/29 00:38:03;;;;;;;5.13;1.87;;;1.60;99.90;;;;;;4951935;28;20450;-86
2021/12/29 00:40:29;;;;;;;1.60;1.50;;;1.60;99.90;;;;;;4950764;28;20457;-87
2021/12/29 00:42:55;;;;;;;1.37;1.27;;;1.60;99.90;;;;;;4933982;29;20576;-87
2021/12/29 00:45:21;;;;;;;3.13;2.10;;;1.70;99.90;;;;;;4933289;29;20954;-87
2021/12/29 00:47:49;;;;;;;1.53;1.43;;;1.70;99.90;;;;;;4948400;28;20465;-87
2021/12/29 00:50:16;;;;;;;9.57;2.60;;;1.70;99.90;;;;;;4944946;28;20211;-87
2021/12/29 00:52:44;;;;;;;1.30;1.20;;;1.70;99.90;;;;;;4941489;28;20450;-87
2021/12/29 00:55:11;;;;;;;2.20;2.03;;;1.60;99.90;;;;;;4949085;28;20442;-87
2021/12/29 00:57:37;;;;;;;1.77;1.60;;;1.60;99.90;;;;;;4933493;28;20493;-87
2021/12/29 01:00:15;;;;;;;1.30;1.20;;;1.60;99.90;;;;;;4930888;28;20967;-87
2021/12/29 01:02:42;;;;;;;1.37;1.27;;;1.60;99.90;;;;;;4939154;28;20474;-87
2021/12/29 01:05:08;;;;;;;3.93;2.63;;;1.60;99.90;;;;;;4951295;28;20498;-87
2021/12/29 01:07:34;;;;;;;1.67;1.57;;;1.60;99.90;;;;;;4933451;29;20439;-87
2021/12/29 01:10:00;;;;;;;1.43;1.33;;;1.60;99.90;;;;;;4932249;29;20524;-86
2021/12/29 01:12:27;;;;;;;1.10;1.00;;;1.70;99.90;;;;;;4939827;28;20182;-87
2021/12/29 01:14:55;;;;;;;1.10;1.00;;;1.70;99.90;;;;;;4927557;29;20869;-87
2021/12/29 01:17:24;;;;;;;2.03;1.93;;;1.70;99.90;;;;;;4928188;28;20443;-87
2021/12/29 01:19:53;;;;;;;1.53;1.43;;;1.70;99.90;;;;;;4955689;28;20442;-87
2021/12/29 01:22:23;;;;;;;1.10;1.00;;;1.70;99.90;;;;;;4930791;28;20427;-87
2021/12/29 01:24:49;;;;;;;2.83;2.57;;;1.70;99.90;;;;;;4935207;29;20458;-86
2021/12/29 01:27:16;;;;;;;0.80;0.80;;;1.70;99.90;;;;;;4930636;28;20450;-86
2021/12/29 01:29:42;;;;;;;1.90;1.77;;;1.60;99.90;;;;;;4945630;28;21011;-87
2021/12/29 01:32:07;;;;;;;1.00;0.90;;;1.60;99.90;;;;;;4935471;29;20454;-87
2021/12/29 01:34:33;;;;;;;1.63;1.50;;;1.60;99.90;;;;;;4925843;28;20470;-87
2021/12/29 01:36:59;;;;;;;1.40;1.30;;;1.60;99.90;;;;;;4937036;29;20619;-88
2021/12/29 01:39:25;;;;;;;2.10;1.70;;;1.60;99.90;;;;;;4934859;29;20434;-87
2021/12/29 01:41:54;;;;;;;4.33;2.80;;;1.70;99.90;;;;;;4935990;29;20441;-87
2021/12/29 01:44:23;;;;;;;1.10;1.00;;;1.60;99.90;;;;;;4937494;28;20230;-87
2021/12/29 01:46:50;;;;;;;4.03;3.07;;;1.60;99.90;;;;;;4951437;28;20434;-87
2021/12/29 01:49:15;;;;;;;0.90;0.90;;;1.50;99.90;;;;;;4935315;29;20454;-88
2021/12/29 01:51:48;;;;;;;1.27;1.17;;;1.50;99.90;;;;;;4949551;28;20458;-87
2021/12/29 01:54:23;;;;;;;1.17;1.07;;;1.60;99.90;;;;;;4935705;28;20246;-87
2021/12/29 01:56:50;;;;;;;3.70;3.50;;;1.60;99.90;;;;;;4953481;28;20543;-87
2021/12/29 01:59:15;;;;;;;3.00;1.57;;;1.60;99.90;;;;;;4935095;28;20538;-86
2021/12/29 02:01:42;;;;;;;2.43;2.07;;;1.60;99.90;;;;;;4931196;28;20533;-87
2021/12/29 02:04:07;;;;;;;5.23;2.93;;;1.60;99.90;;;;;;4936686;29;20273;-87
2021/12/29 02:06:33;;;;;;;5.37;3.87;;;1.70;99.90;;;;;;4933428;29;20465;-87
2021/12/29 02:08:59;;;;;;;1.63;1.50;;;1.70;99.90;;;;;;4952468;28;20199;-87
2021/12/29 02:11:30;;;;;;;1.30;1.20;;;1.70;99.90;;;;;;4947249;28;20443;-87
2021/12/29 02:14:02;;;;;;;3.37;3.17;;;1.70;99.90;;;;;;4934294;29;20182;-87
2021/12/29 02:16:28;;;;;;;4.07;3.63;;;1.70;99.90;;;;;;4944187;28;20469;-87
2021/12/29 02:18:55;;;;;;;1.77;1.67;;;1.70;99.90;;;;;;4935057;28;20525;-87
2021/12/29 02:21:24;;;;;;;1.87;1.77;;;1.70;99.90;;;;;;4947413;28;21216;-87
2021/12/29 02:26:25;;;;;;;2.13;2.03;;;1.70;99.90;;;;;;4952931;28;20450;-86
2021/12/29 02:28:51;;;;;;;2.53;2.43;;;1.70;99.90;;;;;;4940126;28;20560;-87
2021/12/29 02:31:16;;;;;;;0.80;0.80;;;1.70;99.90;;;;;;4939322;29;20454;-87
2021/12/29 02:33:42;;;;;;;1.30;1.20;;;1.70;99.90;;;;;;4926957;29;20194;-87
2021/12/29 02:36:08;;;;;;;6.77;2.50;;;1.60;99.90;;;;;;4944188;28;20397;-87
2021/12/29 02:38:36;;;;;;;2.40;2.30;;;1.60;99.90;;;;;;4933269;29;20278;-87
2021/12/29 02:41:04;;;;;;;3.83;3.63;;;1.60;99.90;;;;;;4931133;28;20262;-87
2021/12/29 02:43:32;;;;;;;1.83;1.73;;;1.60;99.90;;;;;;4935317;28;20540;-88
2021/12/29 02:45:58;;;;;;;1.50;1.40;;;1.60;99.90;;;;;;4946330;28;20729;-88
2021/12/29 02:48:28;;;;;;;1.00;0.90;;;1.60;99.90;;;;;;4951637;28;20449;-87
2021/12/29 02:50:56;;;;;;;16.53;2.73;;;1.70;99.90;;;;;;4946877;28;20454;-87
2021/12/29 02:53:26;;;;;;;4.83;3.57;;;1.70;99.90;;;;;;4952991;28;20934;-87
2021/12/29 02:55:53;;;;;;;5.03;2.70;;;1.70;99.90;;;;;;4951467;28;21017;-86
2021/12/29 02:58:20;;;;;;;5.73;4.73;;;1.60;99.90;;;;;;4945365;28;20446;-86
2021/12/29 03:00:46;;;;;;;1.20;1.10;;;1.60;99.90;;;;;;4947858;28;20449;-86
2021/12/29 03:03:30;;;;;;;1.50;1.40;;;1.50;99.90;;;;;;4950947;28;20574;-87
2021/12/29 03:05:57;;;;;;;0.90;0.90;;;1.60;99.90;;;;;;4933454;29;20446;-86
2021/12/29 03:08:23;;;;;;;1.70;1.60;;;1.50;99.90;;;;;;4942615;28;20449;-87
2021/12/29 03:10:52;;;;;;;2.10;2.00;;;1.50;99.90;;;;;;4933048;29;20466;-87
2021/12/29 03:13:23;;;;;;;2.90;2.70;;;1.50;99.90;;;;;;4947953;28;20469;-87
2021/12/29 03:15:48;;;;;;;3.30;3.10;;;1.50;99.90;;;;;;4942336;28;20606;-86
2021/12/29 03:18:15;;;;;;;2.03;1.93;;;1.50;99.90;;;;;;4947073;28;20537;-87
2021/12/29 03:20:40;;;;;;;2.60;2.50;;;1.50;99.90;;;;;;4949870;28;20197;-86
2021/12/29 03:23:06;;;;;;;3.87;2.73;;;1.50;99.90;;;;;;4946021;28;20908;-87
2021/12/29 03:25:32;;;;;;;3.00;1.37;;;1.50;99.90;;;;;;4931870;29;20190;-87
2021/12/29 03:27:59;;;;;;;1.13;1.03;;;1.50;99.90;;;;;;4943251;28;20190;-86
2021/12/29 03:30:35;;;;;;;2.80;2.60;;;1.40;99.90;;;;;;4946646;28;20221;-87
2021/12/29 03:33:04;;;;;;;2.67;2.30;;;1.40;99.90;;;;;;4957742;28;20443;-87
2021/12/29 03:35:33;;;;;;;2.07;1.97;;;1.40;99.90;;;;;;4952675;28;20446;-87
2021/12/29 03:38:01;;;;;;;1.73;1.63;;;1.40;99.90;;;;;;4946472;28;20435;-87
2021/12/29 03:40:27;;;;;;;1.60;1.50;;;1.30;99.90;;;;;;4951626;28;20489;-86
2021/12/29 03:42:54;;;;;;;6.80;4.33;;;1.40;99.90;;;;;;4927432;29;21061;-87
2021/12/29 03:45:20;;;;;;;2.73;2.50;;;1.40;99.90;;;;;;4936172;28;20447;-87
2021/12/29 03:47:45;;;;;;;3.13;2.33;;;1.40;99.90;;;;;;4950797;28;20430;-87
2021/12/29 03:50:11;;;;;;;1.17;1.07;;;1.50;99.90;;;;;;4943212;28;20438;-88
2021/12/29 03:52:37;;;;;;;1.97;1.87;;;1.50;99.90;;;;;;4950348;28;20190;-86
2021/12/29 03:55:03;;;;;;;2.40;2.20;;;1.40;99.90;;;;;;4945007;28;20187;-87
2021/12/29 03:57:29;;;;;;;4.40;3.70;;;1.40;99.90;;;;;;4951084;28;20266;-86
2021/12/29 03:59:54;;;;;;;1.43;1.33;;;1.40;99.90;;;;;;4939109;28;20554;-87
2021/12/29 04:02:20;;;;;;;2.23;1.43;;;1.40;99.90;;;;;;4937671;28;20459;-87
2021/12/29 04:04:45;;;;;;;1.00;0.90;;;1.40;99.90;;;;;;4947018;28;21034;-86
2021/12/29 04:07:11;;;;;;;4.07;3.47;;;1.40;99.90;;;;;;4944053;28;20198;-87
2021/12/29 04:09:38;;;;;;;2.00;1.07;;;1.40;99.90;;;;;;4942749;28;20554;-87
2021/12/29 04:12:03;;;;;;;1.60;1.50;;;1.50;99.90;;;;;;4939519;28;20233;-87
2021/12/29 04:14:29;;;;;;;6.50;6.07;;;1.50;99.90;;;;;;4945835;28;20518;-87
2021/12/29 04:16:57;;;;;;;3.77;2.50;;;1.40;99.90;;;;;;4948030;28;20194;-87
2021/12/29 04:19:29;;;;;;;1.00;0.90;;;1.40;99.90;;;;;;4949271;28;20182;-86
2021/12/29 04:21:57;;;;;;;1.70;1.60;;;1.40;99.90;;;;;;4946053;28;20457;-87
2021/12/29 04:24:24;;;;;;;25.60;3.20;;;1.40;99.90;;;;;;4935744;28;20623;-87
2021/12/29 04:26:50;;;;;;;1.63;1.20;;;1.50;99.90;;;;;;4951495;28;20430;-86
2021/12/29 04:29:15;;;;;;;3.00;2.83;;;1.40;99.90;;;;;;4943362;28;20478;-87
2021/12/29 04:31:42;;;;;;;2.20;1.90;;;1.40;99.90;;;;;;4947526;28;20565;-88
2021/12/29 04:34:08;;;;;;;1.87;1.77;;;1.40;99.90;;;;;;4953421;28;20194;-88
2021/12/29 04:36:34;;;;;;;0.80;0.80;;;1.40;99.90;;;;;;4945920;28;20950;-86
2021/12/29 04:39:01;;;;;;;1.00;0.90;;;1.40;99.90;;;;;;4935041;28;20191;-87
2021/12/29 04:41:27;;;;;;;1.00;0.90;;;1.40;99.90;;;;;;4950478;28;20449;-87
2021/12/29 04:43:53;;;;;;;1.17;1.07;;;1.40;99.90;;;;;;4947155;28;20493;-87
2021/12/29 04:46:19;;;;;;;3.37;3.23;;;1.40;99.90;;;;;;4950669;28;20201;-87
2021/12/29 04:49:01;;;;;;;1.90;1.50;;;1.40;99.90;;;;;;4923498;29;20510;-88
2021/12/29 04:51:34;;;;;;;1.20;1.10;;;1.40;99.90;;;;;;4938737;28;20490;-87
2021/12/29 04:54:04;;;;;;;0.97;0.90;;;1.40;99.90;;;;;;4950602;28;20454;-87
2021/12/29 04:56:30;;;;;;;2.37;2.27;;;1.50;99.90;;;;;;4948844;28;20431;-87
2021/12/29 04:58:55;;;;;;;1.20;1.10;;;1.50;99.90;;;;;;4930207;29;20535;-87
2021/12/29 05:01:21;;;;;;;0.87;0.80;;;1.40;99.90;;;;;;4953858;28;20733;-87
2021/12/29 05:03:47;;;;;;;1.60;1.50;;;1.50;99.90;;;;;;4947624;28;20246;-87
2021/12/29 05:08:38;;;;;;;1.10;1.00;;;1.40;99.90;;;;;;4953260;28;20442;-87
2021/12/29 05:11:10;;;;;;;5.47;5.27;;;1.40;99.90;;;;;;4945739;28;20194;-87
2021/12/29 05:13:39;;;;;;;1.67;1.47;;;1.40;99.90;;;;;;4944542;28;20738;-87
2021/12/29 05:16:05;;;;;;;5.13;2.73;;;1.40;99.90;;;;;;4943458;28;20521;-87
2021/12/29 05:18:32;;;;;;;3.20;2.03;;;1.40;99.90;;;;;;4936437;28;20530;-87
2021/12/29 05:20:58;;;;;;;1.00;0.90;;;1.50;99.90;;;;;;4946184;28;21223;-87
2021/12/29 05:23:25;;;;;;;1.87;1.77;;;1.40;99.90;;;;;;4953044;28;20516;-87
2021/12/29 05:25:51;;;;;;;1.83;1.67;;;1.50;99.90;;;;;;4942067;28;20430;-88
2021/12/29 05:28:20;;;;;;;1.93;1.83;;;1.50;99.90;;;;;;4942463;28;20474;-87
2021/12/29 05:30:47;;;;;;;1.77;1.67;;;1.50;99.90;;;;;;4935266;28;20549;-87
2021/12/29 05:33:14;;;;;;;1.27;1.17;;;1.50;99.90;;;;;;4953897;28;20489;-87
2021/12/29 05:35:40;;;;;;;1.33;1.23;;;1.50;99.90;;;;;;4947756;28;20482;-87
2021/12/29 05:38:05;;;;;;;2.67;2.57;;;1.50;99.90;;;;;;4946047;28;20829;-88
2021/12/29 05:40:31;;;;;;;3.50;1.40;;;1.50;99.90;;;;;;4945694;28;20526;-87
2021/12/29 05:42:58;;;;;;;1.83;1.73;;;1.50;99.90;;;;;;4944281;28;20223;-88
2021/12/29 05:45:25;;;;;;;1.20;1.10;;;1.50;99.90;;;;;;4942505;28;20214;-88
2021/12/29 05:47:50;;;;;;;2.43;2.23;;;1.40;99.90;;;;;;4955074;28;20528;-87
2021/12/29 05:50:19;;;;;;;1.73;1.63;;;1.50;99.90;;;;;;4952331;28;20465;-88
2021/12/29 05:52:46;;;;;;;2.10;2.00;;;1.50;99.90;;;;;;4955656;28;20240;-87
2021/12/29 05:55:12;;;;;;;4.47;1.93;;;1.50;99.90;;;;;;4951904;28;20446;-87
2021/12/29 05:57:39;;;;;;;1.47;1.37;;;1.50;99.90;;;;;;4954644;28;20449;-88
2021/12/29 06:00:11;;;;;;;1.97;1.87;;;1.50;99.90;;;;;;4930386;29;20427;-88
2021/12/29 06:02:37;;;;;;;2.00;1.43;;;1.50;99.90;;;;;;4942983;28;20479;-88
2021/12/29 06:05:04;;;;;;;0.87;0.80;;;1.50;99.90;;;;;;4942140;28;20465;-87
2021/12/29 06:07:29;;;;;;;0.80;0.80;;;1.50;99.90;;;;;;4939389;28;20186;-88
2021/12/29 06:09:55;;;;;;;3.40;3.20;;;1.50;99.90;;;;;;4941094;28;20450;-89
2021/12/29 06:12:21;;;;;;;1.93;1.83;;;1.50;99.90;;;;;;4944836;28;20717;-88
2021/12/29 06:14:47;;;;;;;2.03;1.73;;;1.50;99.90;;;;;;4939988;29;20206;-88
2021/12/29 06:17:14;;;;;;;2.60;1.50;;;;;;;;;;4941434;28;20199;-87
2021/12/29 06:19:40;;;;;;;2.03;1.93;;;1.50;99.90;;;;;;4951533;28;20484;-87
2021/12/29 06:22:09;;;;;;;1.87;1.77;;;1.50;99.90;;;;;;4936549;28;20459;-88
2021/12/29 06:24:35;;;;;;;4.90;2.53;;;1.40;99.90;;;;;;4931386;28;20520;-87
2021/12/29 06:27:00;;;;;;;1.77;1.60;;;1.40;99.90;;;;;;4931897;28;20782;-88
2021/12/29 06:29:26;;;;;;;2.70;2.60;;;1.40;99.90;;;;;;4930868;28;20569;-87
2021/12/29 06:31:52;;;;;;;2.20;2.10;;;1.40;99.90;;;;;;4939085;28;20270;-88
2021/12/29 06:34:18;;;;;;;1.30;1.20;;;1.40;99.90;;;;;;4933199;29;20194;-88
2021/12/29 06:36:43;;;;;;;5.53;2.23;;;1.40;99.90;;;;;;4947626;28;20517;-87
2021/12/29 06:39:09;;;;;;;3.47;3.30;;;1.50;99.90;;;;;;4942980;28;20451;-87
2021/12/29 06:41:35;;;;;;;2.23;2.13;;;1.40;99.90;;;;;;4945935;28;20190;-87
2021/12/29 06:44:01;;;;;;;10.30;2.47;;;1.40;99.90;;;;;;4950538;28;20498;-88
2021/12/29 06:46:27;;;;;;;2.20;2.10;;;1.40;99.90;;;;;;4935246;29;20187;-88
2021/12/29 06:48:52;;;;;;;2.00;1.77;;;1.40;99.90;;;;;;4946103;28;20451;-88
2021/12/29 06:51:18;;;;;;;3.63;2.73;;;1.40;99.90;;;;;;4920153;29;20916;-87
2021/12/29 06:53:43;;;;;;;13.23;4.30;;;1.40;99.90;;;;;;4934824;29;20674;-88
2021/12/29 06:56:10;;;;;;;2.03;1.90;;;1.40;99.90;;;;;;4943523;28;20190;-87
2021/12/29 06:58:35;;;;;;;3.80;2.40;;;1.40;99.90;;;;;;4933467;28;20187;-88
2021/12/29 07:01:01;;;;;;;3.67;3.10;;;1.40;99.90;;;;;;4950098;28;20536;-87
2021/12/29 07:03:26;;;;;;;1.23;1.13;;;1.30;99.90;;;;;;4940719;28;20699;-88
2021/12/29 07:05:54;;;;;;;1.47;1.37;;;1.40;99.90;;;;;;4922475;29;20186;-88
2021/12/29 07:08:20;;;;;;;2.90;2.70;;;1.50;99.90;;;;;;4952860;28;20183;-88
2021/12/29 07:10:46;;;;;;;1.00;0.90;;;1.50;99.90;;;;;;4951847;28;20449;-88
2021/12/29 07:13:12;;;;;;;2.90;2.60;;;1.40;99.90;;;;;;4938349;28;20439;-87
2021/12/29 07:15:37;;;;;;;3.50;3.30;;;1.40;99.90;;;;;;4944836;28;20199;-88
2021/12/29 07:18:04;;;;;;;1.10;1.00;;;1.50;99.90;;;;;;4945764;28;20753;-88
2021/12/29 07:20:30;;;;;;;7.10;3.23;;;1.50;99.90;;;;;;4946610;28;20778;-89
2021/12/29 07:22:55;;;;;;;1.47;1.07;;;1.50;99.90;;;;;;4941655;28;20482;-88
2021/12/29 07:25:22;;;;;;;9.13;2.30;;;1.50;99.90;;;;;;4941287;28;20659;-88
2021/12/29 07:27:48;;;;;;;1.10;1.00;;;1.40;99.90;;;;;;4935677;28;20223;-87
2021/12/29 07:30:13;;;;;;;1.53;1.43;;;1.40;99.90;;;;;;4944190;28;20510;-90
2021/12/29 07:32:40;;;;;;;2.10;2.00;;;1.40;99.90;;;;;;4935764;28;20439;-91
2021/12/29 07:35:06;;;;;;;1.97;1.67;;;1.40;99.90;;;;;;4939289;28;20206;-91
2021/12/29 07:37:33;;;;;;;15.80;1.67;;;1.40;99.90;;;;;;4941762;28;20442;-90
2021/12/29 07:40:01;;;;;;;4.33;3.80;;;1.40;99.90;;;;;;4929511;29;20454;-91
2021/12/29 07:42:26;;;;;;;1.67;1.57;;;1.40;99.90;;;;;;4942086;28;20450;-89
2021/12/29 07:44:52;;;;;;;2.57;1.73;;;1.40;99.90;;;;;;4942481;28;20442;-88
2021/12/29 07:47:18;;;;;;;2.93;2.73;;;1.50;99.90;;;;;;4940006;28;20222;-87
2021/12/29 07:49:43;;;;;;;1.20;1.10;;;1.50;99.90;;;;;;4947130;28;20559;-89
2021/12/29 07:52:09;;;;;;;2.07;1.97;;;1.50;99.90;;;;;;4941385;28;20562;-89
2021/12/29 07:54:35;;;;;;;1.67;1.57;;;1.50;99.90;;;;;;4953212;28;20687;-90
2021/12/29 07:57:00;;;;;;;2.60;1.27;;;1.50;99.90;;;;;;4927087;29;21054;-91
2021/12/29 07:59:26;;;;;;;3.17;2.87;;;1.50;99.90;;;;;;4946787;28;20198;-90
2021/12/29 08:01:52;;;;;;;3.93;3.63;;;1.50;99.90;;;;;;4956170;28;20230;-89
2021/12/29 08:04:21;;;;;;;1.40;1.30;;;1.50;99.90;;;;;;4941492;28;20274;-89
2021/12/29 08:06:47;;;;;;;1.40;1.30;;;1.50;99.90;;;;;;4926792;28;20195;-89
2021/12/29 08:09:13;;;;;;;3.10;1.50;;;1.50;99.90;;;;;;4937759;28;20542;-90
2021/12/29 08:11:40;;;;;;;2.30;2.10;;;1.50;99.90;;;;;;4951236;28;20938;-89
2021/12/29 08:14:07;;;;;;;1.23;1.13;;;1.50;99.90;;;;;;4940584;28;20449;-89
2021/12/29 08:16:33;;;;;;;0.90;0.80;;;1.50;99.90;;;;;;4939848;28;20442;-91
2021/12/29 08:18:58;;;;;;;1.20;1.10;;;1.50;99.90;;;;;;4949001;28;20469;-90
2021/12/29 08:21:24;;;;;;;2.03;1.93;;;1.60;99.90;;;;;;4944216;28;20210;-89
2021/12/29 08:23:49;;;;;;;2.33;2.17;;;1.60;99.90;;;;;;4942431;28;20226;-89
2021/12/29 08:26:15;;;;;;;0.80;0.80;;;1.60;99.90;;;;;;4943994;28;20647;-89
2021/12/29 08:28:41;;;;;;;1.33;1.20;;;1.60;99.90;;;;;;4944596;28;20242;-90
2021/12/29 08:31:06;;;;;;;2.43;2.20;;;1.60;99.90;;;;;;4933181;28;20186;-90
2021/12/29 08:33:33;;;;;;;0.80;0.80;;;1.60;99.90;;;;;;4946929;28;20190;-88
2021/12/29 08:35:59;;;;;;;2.70;2.50;;;1.60;99.90;;;;;;4945141;28;20197;-89
2021/12/29 08:38:24;;;;;;;1.93;1.83;;;1.60;99.90;;;;;;4944679;28;21241;-89
2021/12/29 08:40:51;;;;;;;1.33;1.23;;;1.70;99.90;;;;;;4943243;28;20203;-89
2021/12/29 08:43:17;;;;;;;7.20;2.17;;;1.70;99.90;;;;;;4952705;28;20214;-89
2021/12/29 08:45:43;;;;;;;1.30;1.20;;;1.70;99.90;;;;;;4936392;28;20454;-89
2021/12/29 08:48:10;;;;;;;3.57;2.30;;;1.80;99.90;;;;;;4943865;28;20446;-89
2021/12/29 08:50:36;;;;;;;3.10;2.90;;;1.80;99.90;;;;;;4918592;29;20450;-88
2021/12/29 08:53:04;;;;;;;1.87;1.77;;;1.80;99.90;;;;;;4941855;28;20525;-89
2021/12/29 08:55:32;;;;;;;2.50;1.90;;;1.80;99.90;;;;;;4939434;28;20199;-88
2021/12/29 08:57:58;;;;;;;3.40;3.20;;;1.90;99.90;;;;;;4944551;28;20457;-89
2021/12/29 09:00:29;;;;;;;1.27;1.17;;;1.80;99.90;;;;;;4947664;28;20446;-89
2021/12/29 09:02:55;;;;;;;1.53;1.43;;;1.80;99.90;;;;;;4941159;28;20223;-90
2021/12/29 09:05:21;;;;;;;1.37;1.27;;;1.80;99.90;;;;;;4943637;28;20450;-90
2021/12/29 09:07:46;;;;;;;2.03;1.93;;;1.90;99.90;;;;;;4946490;28;20203;-90
2021/12/29 09:10:16;;;;;;;3.00;2.80;;;1.90;99.90;;;;;;4940283;28;20195;-91
2021/12/29 09:12:41;;;;;;;1.00;0.93;;;1.90;99.90;;;;;;4939168;28;20460;-88
2021/12/29 09:15:08;;;;;;;2.80;2.43;;;1.90;99.90;;;;;;4936490;28;20450;-90
2021/12/29 09:17:35;;;;;;;1.67;1.50;;;1.80;99.90;;;;;;4937375;28;20199;-88
2021/12/29 09:20:02;;;;;;;2.07;1.90;;;1.90;99.90;;;;;;4943466;28;20446;-91
2021/12/29 09:22:28;;;;;;;2.80;2.60;;;1.90;99.90;;;;;;4946047;28;20958;-90
2021/12/29 09:24:54;;;;;;;2.87;2.67;;;1.90;99.90;;;;;;4936929;28;20451;-92
2021/12/29 09:27:19;;;;;;;1.63;1.53;;;2.00;99.90;;;;;;4929065;29;20438;-91
2021/12/29 09:29:45;;;;;;;2.80;1.20;;;2.00;99.90;;;;;;4938326;28;20730;-90
2021/12/29 09:32:11;;;;;;;1.00;0.90;;;2.10;99.90;;;;;;4952304;28;20202;-89
2021/12/29 09:34:37;;;;;;;0.90;0.80;;;2.10;99.90;;;;;;4920084;29;20279;-91
2021/12/29 09:37:07;;;;;;;4.20;3.33;;;2.10;99.90;;;;;;4932298;28;20442;-90
2021/12/29 09:39:33;;;;;;;1.53;1.43;;;2.20;99.90;;;;;;4947026;28;20453;-91
2021/12/29 09:41:59;;;;;;;1.17;1.07;;;2.20;99.90;;;;;;4930284;29;20449;-91
2021/12/29 09:44:25;;;;;;;2.03;1.40;;;2.30;99.90;;;;;;4941490;28;20506;-92
2021/12/29 09:46:53;;;;;;;6.73;6.17;;;2.30;99.90;;;;;;4940956;28;20540;-90
2021/12/29 09:49:19;;;;;;;3.03;2.83;;;2.30;99.90;;;;;;4948166;28;20446;-91
2021/12/29 09:51:44;;;;;;;2.03;1.93;;;2.40;99.90;;;;;;4936981;28;20497;-91
2021/12/29 09:54:11;;;;;;;8.20;3.00;;;2.30;99.90;;;;;;4941888;28;20207;-92
2021/12/29 09:56:36;;;;;;;0.80;0.80;;;2.40;99.90;;;;;;4938744;28;20621;-91
2021/12/29 09:59:03;;;;;;;1.90;1.80;;;2.40;99.90;;;;;;4946373;28;21033;-90
2021/12/29 10:01:28;;;;;;;1.90;1.80;;;2.40;99.90;;;;;;4939540;28;20478;-91
2021/12/29 10:03:54;;;;;;;1.00;0.90;;;2.40;99.90;;;;;;4944235;28;21005;-90
2021/12/29 10:06:20;;;;;;;5.33;2.87;;;2.40;99.90;;;;;;4944615;28;20194;-89
2021/12/29 10:08:47;;;;;;;1.13;1.03;;;2.40;99.90;;;;;;4948461;28;20274;-90
2021/12/29 10:11:21;;;;;;;4.60;1.47;;;2.50;99.90;;;;;;4949739;28;20199;-89
2021/12/29 10:13:49;;;;;;;2.13;2.03;;;2.50;99.90;;;;;;4941678;28;20462;-91
2021/12/29 10:16:18;;;;;;;1.60;1.50;;;2.40;99.90;;;;;;4940943;28;20524;-91
2021/12/29 10:18:45;;;;;;;8.10;3.43;;;2.40;99.90;;;;;;4942598;28;20471;-89
2021/12/29 10:21:14;;;;;;;7.70;3.47;;;2.40;99.90;;;;;;4945887;28;20445;-90
2021/12/29 10:23:45;;;;;;;1.73;1.63;;;2.40;99.90;;;;;;4940487;28;21173;-91
2021/12/29 10:26:15;;;;;;;0.80;0.70;;;2.40;99.90;;;;;;4954272;28;20450;-91
2021/12/29 10:28:49;;;;;;;0.80;0.80;;;2.50;99.90;;;;;;4933232;28;20558;-90
2021/12/29 10:31:18;;;;;;;1.97;1.73;;;2.50;99.90;;;;;;4935494;28;21029;-91
2021/12/29 10:33:47;;;;;;;5.07;4.57;;;2.60;99.90;;;;;;4949240;28;21032;-90
2021/12/29 10:36:29;;;;;;;4.63;3.50;;;2.60;99.90;;;;;;4938025;28;20439;-91
2021/12/29 10:39:23;;;;;;;3.00;2.80;;;2.70;99.90;;;;;;4943043;28;20534;-90
2021/12/29 10:42:02;;;;;;;1.07;0.97;;;2.70;99.90;;;;;;4933235;28;20576;-89
2021/12/29 10:45:02;;;;;;;1.20;1.10;;;2.70;99.90;;;;;;4946368;28;20492;-90
2021/12/29 10:47:33;;;;;;;4.33;4.00;;;2.80;99.90;;;;;;4936950;28;20446;-91
2021/12/29 10:50:03;;;;;;;6.67;3.00;;;2.70;99.90;;;;;;4944686;28;20522;-88
2021/12/29 10:52:34;;;;;;;20.13;1.43;;;2.70;99.90;;;;;;4936182;28;20798;-89
2021/12/29 10:55:03;;;;;;;1.10;1.00;;;2.70;99.90;;;;;;4935123;28;20439;-89
2021/12/29 10:57:29;;;;;;;2.27;2.17;;;2.60;99.90;;;;;;4944658;28;20861;-90
2021/12/29 10:59:57;;;;;;;2.57;2.47;;;2.70;99.90;;;;;;4941009;28;20477;-91
2021/12/29 11:02:35;;;;;;;4.00;3.43;;;2.60;99.90;;;;;;4940996;28;20454;-90
2021/12/29 11:05:04;;;;;;;34.87;3.20;;;2.70;99.90;;;;;;4947306;28;20462;-90
2021/12/29 11:07:32;;;;;;;0.80;0.73;;;2.60;99.90;;;;;;4939577;28;20470;-90
2021/12/29 11:10:15;;;;;;;1.30;1.20;;;2.60;99.90;;;;;;4940917;28;20455;-91
2021/12/29 11:12:54;;;;;;;1.20;1.10;;;2.60;99.90;;;;;;4947229;28;20549;-89
2021/12/29 11:15:23;;;;;;;1.00;0.90;;;2.50;99.90;;;;;;4947488;28;20445;-91
2021/12/29 11:17:50;;;;;;;0.87;0.87;;;2.40;99.90;;;;;;4934511;29;20442;-88
2021/12/29 11:20:18;;;;;;;2.83;2.67;;;2.40;99.90;;;;;;4948349;28;20513;-88
2021/12/29 11:22:44;;;;;;;2.60;2.50;;;2.50;99.90;;;;;;4937767;28;20486;-88
2021/12/29 11:25:10;;;;;;;1.20;1.10;;;2.50;99.90;;;;;;4940823;28;20835;-89
2021/12/29 11:27:36;;;;;;;2.60;2.50;;;2.50;99.90;;;;;;4926223;29;20238;-88
2021/12/29 11:30:06;;;;;;;1.60;1.50;;;2.50;99.90;;;;;;4944722;28;20235;-89
2021/12/29 11:32:35;;;;;;;2.13;2.03;;;2.50;99.90;;;;;;4938431;28;20569;-90
2021/12/29 11:35:04;;;;;;;0.80;0.80;;;2.50;99.90;;;;;;4942863;28;20466;-89
2021/12/29 11:37:30;;;;;;;9.60;2.50;;;2.50;99.90;;;;;;4935005;28;20469;-89
2021/12/29 11:39:56;;;;;;;1.03;0.93;;;2.50;99.90;;;;;;4948397;28;20547;-88
2021/12/29 11:42:21;;;;;;;1.30;1.20;;;2.50;99.90;;;;;;4956182;28;20443;-91
2021/12/29 11:44:47;;;;;;;1.70;1.60;;;2.60;99.90;;;;;;4934888;29;20486;-90
2021/12/29 11:47:13;;;;;;;2.40;1.93;;;2.60;99.90;;;;;;4962747;28;20191;-92
2021/12/29 11:49:39;;;;;;;7.97;3.27;;;2.60;99.90;;;;;;4944098;28;20234;-92
2021/12/29 11:52:42;;;;;;;0.80;0.63;;;2.60;99.90;;;;;;4935756;29;20175;-92
2021/12/29 11:55:24;;;;;;;0.80;0.80;;;2.60;99.90;;;;;;4939516;28;20926;-90
2021/12/29 11:57:50;;;;;;;1.40;1.30;;;2.60;99.90;;;;;;4949057;28;20449;-90
2021/12/29 12:00:19;;;;;;;1.57;1.47;;;2.70;99.90;;;;;;4937636;28;20466;-94
2021/12/29 12:02:47;;;;;;;1.97;1.87;;;2.70;99.90;;;;;;4936926;29;20435;-93
2021/12/29 12:05:17;;;;;;;0.93;0.93;;;2.70;99.90;;;;;;4926182;29;20438;-92
2021/12/29 12:07:43;;;;;;;1.63;1.53;;;2.70;99.90;;;;;;4949915;28;20490;-90
2021/12/29 12:10:23;;;;;;;2.73;2.63;;;2.70;99.90;;;;;;4956393;28;20446;-94
2021/12/29 12:12:52;;;;;;;0.80;0.80;;;2.80;99.90;;;;;;4950020;28;20453;-90
2021/12/29 12:15:39;;;;;;;1.50;1.40;;;2.70;99.90;;;;;;4934926;29;20446;-89
2021/12/29 12:18:07;;;;;;;1.20;1.10;;;2.80;99.90;;;;;;4948571;28;20447;-90
2021/12/29 12:20:39;;;;;;;0.80;0.70;;;2.80;99.90;;;;;;4947140;28;20526;-90
2021/12/29 12:23:06;;;;;;;1.20;1.10;;;2.80;99.90;;;;;;4934807;29;20573;-91
2021/12/29 12:25:34;;;;;;;1.40;1.33;;;2.80;99.90;;;;;;4943752;28;20449;-90
2021/12/29 12:28:01;;;;;;;9.10;3.43;;;2.80;99.90;;;;;;4922022;28;20875;-90
2021/12/29 12:30:42;;;;;;;2.80;2.60;;;2.80;99.90;;;;;;4945813;28;20453;-91
2021/12/29 12:33:17;;;;;;;1.00;0.90;;;2.80;99.90;;;;;;4939993;28;20426;-89
2021/12/29 12:35:51;;;;;;;1.30;1.20;;;2.80;99.90;;;;;;4919663;29;20457;-89
2021/12/29 12:38:32;;;;;;;1.73;1.63;;;2.80;99.90;;;;;;4940236;28;20473;-88
2021/12/29 12:41:18;;;;;;;1.73;1.63;;;2.70;99.90;;;;;;4954862;28;20783;-89
2021/12/29 12:44:01;;;;;;;3.73;3.43;;;2.70;99.90;;;;;;4946933;28;20482;-89
2021/12/29 12:46:31;;;;;;;4.73;4.43;;;2.70;99.90;;;;;;4944732;28;20994;-89
2021/12/29 12:48:56;;;;;;;2.40;2.30;;;2.70;99.90;;;;;;4942199;28;20452;-89
2021/12/29 12:51:23;;;;;;;1.17;1.07;;;2.80;99.90;;;;;;4944051;28;20435;-88
2021/12/29 12:53:49;;;;;;;0.80;0.80;;;2.70;99.90;;;;;;4934546;29;20447;-89
2021/12/29 12:56:18;;;;;;;2.20;1.37;;;2.70;99.90;;;;;;4928569;28;20526;-90
2021/12/29 12:58:50;;;;;;;2.50;2.30;;;2.70;99.90;;;;;;4941345;28;20482;-90
2021/12/29 13:01:24;;;;;;;1.83;1.73;;;2.70;99.90;;;;;;4927499;29;20438;-90
2021/12/29 13:03:59;;;;;;;0.80;0.73;;;2.70;99.90;;;;;;4934744;28;20506;-89
2021/12/29 13:06:32;;;;;;;3.90;3.10;;;2.70;99.90;;;;;;4945651;28;20460;-90